sensor_id;sensor_type;location;lat;lon;timestamp;pressure;altitude;pressure_sealevel;temperature;humidity
4085;BME280;2057;50.858;6.572;2022-08-19T00:00:25;100090.38;;;18.89;93.31
4085;BME280;2057;50.858;6.572;2022-08-19T00:02:51;100085.31;;;18.97;93.48
4085;BME280;2057;50.858;6.572;2022-08-19T00:05:17;100092.25;;;19.09;93.93
4085;BME280;2057;50.858;6.572;2022-08-19T00:07:43;100091.50;;;19.18;93.74
4085;BME280;2057;50.858;6.572;2022-08-19T00:10:09;100096.59;;;19.15;94.33
4085;BME280;2057;50.858;6.572;2022-08-19T00:12:35;100090.59;;;19.14;93.90
4085;BME280;2057;50.858;6.572;2022-08-19T00:15:04;100090.72;;;19.31;94.27
4085;BME280;2057;50.858;6.572;2022-08-19T00:17:30;100088.13;;;19.31;94.03
4085;BME280;2057;50.858;6.572;2022-08-19T00:19:55;100082.13;;;19.31;93.89
4085;BME280;2057;50.858;6.572;2022-08-19T00:22:21;100088.91;;;19.18;95.75
4085;BME280;2057;50.858;6.572;2022-08-19T00:24:46;100088.06;;;19.19;96.48
4085;BME280;2057;50.858;6.572;2022-08-19T00:27:12;100095.00;;;19.29;95.02
4085;BME280;2057;50.858;6.572;2022-08-19T00:29:38;100098.31;;;19.16;95.95
4085;BME280;2057;50.858;6.572;2022-08-19T00:32:04;100096.66;;;19.24;95.85
4085;BME280;2057;50.858;6.572;2022-08-19T00:34:30;100096.63;;;19.19;96.21
4085;BME280;2057;50.858;6.572;2022-08-19T00:36:56;100094.91;;;19.18;96.02
4085;BME280;2057;50.858;6.572;2022-08-19T00:39:23;100085.53;;;19.25;96.21
4085;BME280;2057;50.858;6.572;2022-08-19T00:41:50;100089.84;;;19.29;96.10
4085;BME280;2057;50.858;6.572;2022-08-19T00:44:19;100087.34;;;19.43;95.04
4085;BME280;2057;50.858;6.572;2022-08-19T00:46:47;100078.72;;;19.35;95.99
4085;BME280;2057;50.858;6.572;2022-08-19T00:51:50;100084.56;;;19.10;97.69
4085;BME280;2057;50.858;6.572;2022-08-19T00:54:17;100078.63;;;19.19;96.79
4085;BME280;2057;50.858;6.572;2022-08-19T00:56:43;100091.50;;;19.21;96.78
4085;BME280;2057;50.858;6.572;2022-08-19T00:59:09;100084.56;;;19.12;97.04
4085;BME280;2057;50.858;6.572;2022-08-19T01:01:37;100081.16;;;19.15;97.35
4085;BME280;2057;50.858;6.572;2022-08-19T01:04:02;100077.63;;;19.03;97.92
4085;BME280;2057;50.858;6.572;2022-08-19T01:06:28;100080.16;;;18.97;98.69
4085;BME280;2057;50.858;6.572;2022-08-19T01:08:55;100082.84;;;19.09;98.63
4085;BME280;2057;50.858;6.572;2022-08-19T01:11:21;100083.72;;;19.11;97.43
4085;BME280;2057;50.858;6.572;2022-08-19T01:13:46;100094.81;;;19.04;98.95
4085;BME280;2057;50.858;6.572;2022-08-19T01:16:12;100083.69;;;19.10;98.71
4085;BME280;2057;50.858;6.572;2022-08-19T01:18:41;100077.75;;;19.16;98.11
4085;BME280;2057;50.858;6.572;2022-08-19T01:21:15;100076.03;;;19.18;97.38
4085;BME280;2057;50.858;6.572;2022-08-19T01:23:43;100076.03;;;19.19;98.06
4085;BME280;2057;50.858;6.572;2022-08-19T01:26:12;100072.59;;;19.16;97.87
4085;BME280;2057;50.858;6.572;2022-08-19T01:28:40;100074.31;;;19.17;97.41
4085;BME280;2057;50.858;6.572;2022-08-19T01:31:08;100073.44;;;19.13;97.84
4085;BME280;2057;50.858;6.572;2022-08-19T01:33:37;100070.94;;;19.22;97.68
4085;BME280;2057;50.858;6.572;2022-08-19T01:36:09;100072.56;;;19.11;98.55
4085;BME280;2057;50.858;6.572;2022-08-19T01:38:38;100074.25;;;19.09;99.27
4085;BME280;2057;50.858;6.572;2022-08-19T01:41:04;100081.94;;;19.01;99.83
4085;BME280;2057;50.858;6.572;2022-08-19T01:43:29;100081.91;;;18.98;99.77
4085;BME280;2057;50.858;6.572;2022-08-19T01:45:55;100078.28;;;18.80;100.00
4085;BME280;2057;50.858;6.572;2022-08-19T01:48:20;100064.56;;;18.78;100.00
4085;BME280;2057;50.858;6.572;2022-08-19T01:50:46;100060.28;;;18.80;100.00
4085;BME280;2057;50.858;6.572;2022-08-19T01:53:12;100059.47;;;18.88;100.00
4085;BME280;2057;50.858;6.572;2022-08-19T01:55:40;100049.19;;;18.86;100.00
4085;BME280;2057;50.858;6.572;2022-08-19T01:58:09;100045.72;;;18.81;100.00
4085;BME280;2057;50.858;6.572;2022-08-19T02:00:36;100047.34;;;18.73;100.00
4085;BME280;2057;50.858;6.572;2022-08-19T02:03:02;100045.75;;;18.84;100.00
4085;BME280;2057;50.858;6.572;2022-08-19T02:05:27;100054.22;;;18.71;100.00
4085;BME280;2057;50.858;6.572;2022-08-19T02:07:55;100061.09;;;18.73;100.00
4085;BME280;2057;50.858;6.572;2022-08-19T02:10:21;100058.47;;;18.67;100.00
4085;BME280;2057;50.858;6.572;2022-08-19T02:12:48;100057.59;;;18.66;100.00
4085;BME280;2057;50.858;6.572;2022-08-19T02:15:15;100049.06;;;18.71;100.00
4085;BME280;2057;50.858;6.572;2022-08-19T02:17:41;100053.38;;;18.73;100.00
4085;BME280;2057;50.858;6.572;2022-08-19T02:20:07;100042.16;;;18.66;100.00
4085;BME280;2057;50.858;6.572;2022-08-19T02:22:33;100042.25;;;18.76;100.00
4085;BME280;2057;50.858;6.572;2022-08-19T02:24:59;100044.78;;;18.73;100.00
4085;BME280;2057;50.858;6.572;2022-08-19T02:27:24;100048.25;;;18.76;100.00
4085;BME280;2057;50.858;6.572;2022-08-19T02:29:51;100049.13;;;18.77;100.00
4085;BME280;2057;50.858;6.572;2022-08-19T02:32:17;100049.22;;;18.91;100.00
4085;BME280;2057;50.858;6.572;2022-08-19T02:34:47;100053.63;;;19.03;100.00
4085;BME280;2057;50.858;6.572;2022-08-19T02:37:13;100051.97;;;19.09;100.00
4085;BME280;2057;50.858;6.572;2022-08-19T02:39:57;100053.69;;;19.10;100.00
4085;BME280;2057;50.858;6.572;2022-08-19T02:42:23;100055.34;;;19.05;100.00
4085;BME280;2057;50.858;6.572;2022-08-19T02:44:49;100061.38;;;19.07;100.00
4085;BME280;2057;50.858;6.572;2022-08-19T02:47:14;100064.06;;;19.23;100.00
4085;BME280;2057;50.858;6.572;2022-08-19T02:49:40;100070.91;;;19.18;100.00
4085;BME280;2057;50.858;6.572;2022-08-19T02:52:06;100074.28;;;19.12;100.00
4085;BME280;2057;50.858;6.572;2022-08-19T02:54:31;100070.88;;;19.13;100.00
4085;BME280;2057;50.858;6.572;2022-08-19T02:56:56;100076.03;;;19.19;100.00
4085;BME280;2057;50.858;6.572;2022-08-19T02:59:22;100081.13;;;19.08;100.00
4085;BME280;2057;50.858;6.572;2022-08-19T03:01:47;100083.63;;;18.98;100.00
4085;BME280;2057;50.858;6.572;2022-08-19T03:04:14;100083.50;;;18.91;99.54
4085;BME280;2057;50.858;6.572;2022-08-19T03:06:44;100084.28;;;18.79;99.85
4085;BME280;2057;50.858;6.572;2022-08-19T03:09:10;100076.44;;;18.62;100.00
4085;BME280;2057;50.858;6.572;2022-08-19T03:11:36;100073.88;;;18.65;100.00
4085;BME280;2057;50.858;6.572;2022-08-19T03:14:04;100076.53;;;18.72;100.00
4085;BME280;2057;50.858;6.572;2022-08-19T03:16:34;100077.31;;;18.69;100.00
4085;BME280;2057;50.858;6.572;2022-08-19T03:19:01;100078.03;;;18.53;100.00
4085;BME280;2057;50.858;6.572;2022-08-19T03:21:29;100071.00;;;18.33;100.00
4085;BME280;2057;50.858;6.572;2022-08-19T03:23:57;100080.66;;;18.56;100.00
4085;BME280;2057;50.858;6.572;2022-08-19T03:26:23;100078.88;;;18.50;100.00
4085;BME280;2057;50.858;6.572;2022-08-19T03:28:48;100077.00;;;18.33;100.00
4085;BME280;2057;50.858;6.572;2022-08-19T03:31:17;100078.81;;;18.45;100.00
4085;BME280;2057;50.858;6.572;2022-08-19T03:33:44;100085.66;;;18.43;100.00
4085;BME280;2057;50.858;6.572;2022-08-19T03:36:19;100088.16;;;18.37;100.00
4085;BME280;2057;50.858;6.572;2022-08-19T03:38:51;100088.13;;;18.32;100.00
4085;BME280;2057;50.858;6.572;2022-08-19T03:41:22;100085.50;;;18.28;100.00
4085;BME280;2057;50.858;6.572;2022-08-19T03:43:49;100088.13;;;18.31;100.00
4085;BME280;2057;50.858;6.572;2022-08-19T03:46:20;100084.66;;;18.30;100.00
4085;BME280;2057;50.858;6.572;2022-08-19T03:48:47;100087.19;;;18.26;100.00
4085;BME280;2057;50.858;6.572;2022-08-19T03:53:49;100086.31;;;18.24;100.00
4085;BME280;2057;50.858;6.572;2022-08-19T03:56:15;100083.81;;;18.28;100.00
4085;BME280;2057;50.858;6.572;2022-08-19T03:58:41;100082.88;;;18.23;100.00
4085;BME280;2057;50.858;6.572;2022-08-19T04:01:13;100087.19;;;18.26;100.00
4085;BME280;2057;50.858;6.572;2022-08-19T04:03:39;100087.19;;;18.26;100.00
4085;BME280;2057;50.858;6.572;2022-08-19T04:06:12;100091.63;;;18.39;100.00
4085;BME280;2057;50.858;6.572;2022-08-19T04:08:40;100095.88;;;18.37;100.00
4085;BME280;2057;50.858;6.572;2022-08-19T04:11:08;100095.00;;;18.35;100.00
4085;BME280;2057;50.858;6.572;2022-08-19T04:13:33;100103.66;;;18.43;100.00
4085;BME280;2057;50.858;6.572;2022-08-19T04:15:59;100113.09;;;18.44;100.00
4085;BME280;2057;50.858;6.572;2022-08-19T04:18:24;100102.88;;;18.50;100.00
4085;BME280;2057;50.858;6.572;2022-08-19T04:20:51;100111.50;;;18.54;100.00
4085;BME280;2057;50.858;6.572;2022-08-19T04:23:17;100114.88;;;18.52;100.00
4085;BME280;2057;50.858;6.572;2022-08-19T04:25:44;100118.22;;;18.41;100.00
4085;BME280;2057;50.858;6.572;2022-08-19T04:28:11;100113.78;;;18.28;100.00
4085;BME280;2057;50.858;6.572;2022-08-19T04:30:41;100113.81;;;18.34;100.00
4085;BME280;2057;50.858;6.572;2022-08-19T04:33:07;100120.59;;;18.24;100.00
4085;BME280;2057;50.858;6.572;2022-08-19T04:35:40;100115.38;;;18.19;100.00
4085;BME280;2057;50.858;6.572;2022-08-19T04:38:07;100117.97;;;18.19;100.00
4085;BME280;2057;50.858;6.572;2022-08-19T04:40:33;100127.00;;;17.91;100.00
4085;BME280;2057;50.858;6.572;2022-08-19T04:43:17;100125.38;;;17.96;100.00
4085;BME280;2057;50.858;6.572;2022-08-19T04:45:44;100129.63;;;17.94;100.00
4085;BME280;2057;50.858;6.572;2022-08-19T04:48:11;100136.66;;;18.06;100.00
4085;BME280;2057;50.858;6.572;2022-08-19T04:50:39;100136.72;;;18.12;100.00
4085;BME280;2057;50.858;6.572;2022-08-19T04:53:06;100144.41;;;18.11;100.00
4085;BME280;2057;50.858;6.572;2022-08-19T04:55:32;100141.75;;;18.03;100.00
4085;BME280;2057;50.858;6.572;2022-08-19T04:57:58;100149.38;;;17.97;100.00
4085;BME280;2057;50.858;6.572;2022-08-19T05:00:23;100146.63;;;17.86;100.00
4085;BME280;2057;50.858;6.572;2022-08-19T05:02:49;100159.44;;;17.83;100.00
4085;BME280;2057;50.858;6.572;2022-08-19T05:05:15;100156.88;;;17.83;100.00
4085;BME280;2057;50.858;6.572;2022-08-19T05:07:40;100159.56;;;17.94;100.00
4085;BME280;2057;50.858;6.572;2022-08-19T05:10:06;100162.34;;;18.06;100.00
4085;BME280;2057;50.858;6.572;2022-08-19T05:12:32;100172.34;;;17.87;100.00
4085;BME280;2057;50.858;6.572;2022-08-19T05:14:58;100171.56;;;17.95;100.00
4085;BME280;2057;50.858;6.572;2022-08-19T05:17:25;100170.78;;;17.97;100.00
4085;BME280;2057;50.858;6.572;2022-08-19T05:19:51;100174.28;;;18.02;100.00
4085;BME280;2057;50.858;6.572;2022-08-19T05:22:35;100175.38;;;18.22;100.00
4085;BME280;2057;50.858;6.572;2022-08-19T05:25:15;100179.84;;;18.37;100.00
4085;BME280;2057;50.858;6.572;2022-08-19T05:27:41;100180.44;;;18.15;100.00
4085;BME280;2057;50.858;6.572;2022-08-19T05:30:08;100181.31;;;18.17;100.00
4085;BME280;2057;50.858;6.572;2022-08-19T05:32:33;100181.13;;;18.02;100.00
4085;BME280;2057;50.858;6.572;2022-08-19T05:34:59;100177.78;;;18.09;100.00
4085;BME280;2057;50.858;6.572;2022-08-19T05:37:24;100171.66;;;17.98;100.00
4085;BME280;2057;50.858;6.572;2022-08-19T05:39:52;100182.97;;;18.12;100.00
4085;BME280;2057;50.858;6.572;2022-08-19T05:42:19;100186.56;;;18.24;100.00
4085;BME280;2057;50.858;6.572;2022-08-19T05:44:45;100183.94;;;18.22;100.00
4085;BME280;2057;50.858;6.572;2022-08-19T05:47:13;100174.41;;;18.13;100.00
4085;BME280;2057;50.858;6.572;2022-08-19T05:52:15;100169.41;;;18.23;100.00
4085;BME280;2057;50.858;6.572;2022-08-19T05:54:41;100166.06;;;18.30;100.00
4085;BME280;2057;50.858;6.572;2022-08-19T05:57:08;100168.91;;;18.53;100.00
4085;BME280;2057;50.858;6.572;2022-08-19T05:59:34;100170.59;;;18.53;100.00
4085;BME280;2057;50.858;6.572;2022-08-19T06:02:04;100172.25;;;18.46;100.00
4085;BME280;2057;50.858;6.572;2022-08-19T06:04:29;100175.72;;;18.51;100.00
4085;BME280;2057;50.858;6.572;2022-08-19T06:06:55;100181.75;;;18.55;100.00
4085;BME280;2057;50.858;6.572;2022-08-19T06:09:22;100171.34;;;18.42;100.00
4085;BME280;2057;50.858;6.572;2022-08-19T06:11:53;100183.53;;;18.59;100.00
4085;BME280;2057;50.858;6.572;2022-08-19T06:14:22;100180.03;;;18.50;100.00
4085;BME280;2057;50.858;6.572;2022-08-19T06:16:49;100176.66;;;18.59;100.00
4085;BME280;2057;50.858;6.572;2022-08-19T06:19:18;100162.94;;;18.56;100.00
4085;BME280;2057;50.858;6.572;2022-08-19T06:21:46;100172.31;;;18.50;100.00
4085;BME280;2057;50.858;6.572;2022-08-19T06:24:15;100167.34;;;18.68;100.00
4085;BME280;2057;50.858;6.572;2022-08-19T06:26:43;100171.53;;;18.61;100.00
4085;BME280;2057;50.858;6.572;2022-08-19T06:29:11;100176.72;;;18.65;100.00
4085;BME280;2057;50.858;6.572;2022-08-19T06:31:42;100175.94;;;18.71;100.00
4085;BME280;2057;50.858;6.572;2022-08-19T06:34:08;100185.31;;;18.66;100.00
4085;BME280;2057;50.858;6.572;2022-08-19T06:36:36;100188.78;;;18.68;100.00
4085;BME280;2057;50.858;6.572;2022-08-19T06:39:05;100187.06;;;18.67;100.00
4085;BME280;2057;50.858;6.572;2022-08-19T06:41:34;100192.16;;;18.64;100.00
4085;BME280;2057;50.858;6.572;2022-08-19T06:44:00;100192.25;;;18.73;100.00
4085;BME280;2057;50.858;6.572;2022-08-19T06:46:26;100194.03;;;18.82;100.00
4085;BME280;2057;50.858;6.572;2022-08-19T06:48:52;100186.34;;;18.82;100.00
4085;BME280;2057;50.858;6.572;2022-08-19T06:51:18;100199.06;;;18.68;100.00
4085;BME280;2057;50.858;6.572;2022-08-19T06:53:48;100198.19;;;18.68;100.00
4085;BME280;2057;50.858;6.572;2022-08-19T06:56:16;100195.56;;;18.61;100.00
4085;BME280;2057;50.858;6.572;2022-08-19T06:58:41;100194.00;;;18.74;100.00
4085;BME280;2057;50.858;6.572;2022-08-19T07:01:07;100196.63;;;18.80;100.00
4085;BME280;2057;50.858;6.572;2022-08-19T07:03:34;100191.47;;;18.79;100.00
4085;BME280;2057;50.858;6.572;2022-08-19T07:06:11;100185.44;;;18.78;100.00
4085;BME280;2057;50.858;6.572;2022-08-19T07:08:38;100186.38;;;18.84;100.00
4085;BME280;2057;50.858;6.572;2022-08-19T07:11:07;100199.28;;;18.90;100.00
4085;BME280;2057;50.858;6.572;2022-08-19T07:13:33;100193.19;;;18.83;100.00
4085;BME280;2057;50.858;6.572;2022-08-19T07:16:13;100201.84;;;18.91;100.00
4085;BME280;2057;50.858;6.572;2022-08-19T07:18:39;100204.50;;;18.96;100.00
4085;BME280;2057;50.858;6.572;2022-08-19T07:21:11;100211.25;;;18.85;100.00
4085;BME280;2057;50.858;6.572;2022-08-19T07:23:36;100206.16;;;18.89;100.00
4085;BME280;2057;50.858;6.572;2022-08-19T07:26:15;100209.66;;;18.94;100.00
4085;BME280;2057;50.858;6.572;2022-08-19T07:28:42;100213.25;;;19.10;100.00
4085;BME280;2057;50.858;6.572;2022-08-19T07:31:12;100214.16;;;19.16;100.00
4085;BME280;2057;50.858;6.572;2022-08-19T07:33:38;100223.53;;;19.10;100.00
4085;BME280;2057;50.858;6.572;2022-08-19T07:36:06;100218.53;;;19.26;100.00
4085;BME280;2057;50.858;6.572;2022-08-19T07:38:33;100227.06;;;19.19;100.00
4085;BME280;2057;50.858;6.572;2022-08-19T07:40:58;100221.16;;;19.32;100.00
4085;BME280;2057;50.858;6.572;2022-08-19T07:43:24;100229.00;;;19.46;100.00
4085;BME280;2057;50.858;6.572;2022-08-19T07:45:52;100235.00;;;19.47;100.00
4085;BME280;2057;50.858;6.572;2022-08-19T07:48:26;100240.22;;;19.56;100.00
4085;BME280;2057;50.858;6.572;2022-08-19T07:50:54;100232.53;;;19.59;100.00
4085;BME280;2057;50.858;6.572;2022-08-19T07:53:21;100247.91;;;19.50;100.00
4085;BME280;2057;50.858;6.572;2022-08-19T07:55:47;100240.19;;;19.50;100.00
4085;BME280;2057;50.858;6.572;2022-08-19T07:58:15;100238.56;;;19.63;99.04
4085;BME280;2057;50.858;6.572;2022-08-19T08:00:42;100240.28;;;19.65;96.57
4085;BME280;2057;50.858;6.572;2022-08-19T08:03:07;100240.44;;;19.81;95.43
4085;BME280;2057;50.858;6.572;2022-08-19T08:05:34;100247.41;;;19.93;94.25
4085;BME280;2057;50.858;6.572;2022-08-19T08:08:37;100238.84;;;19.97;93.46
4085;BME280;2057;50.858;6.572;2022-08-19T08:11:21;100247.59;;;20.22;91.62
4085;BME280;2057;50.858;6.572;2022-08-19T08:13:48;100239.88;;;20.34;90.94
4085;BME280;2057;50.858;6.572;2022-08-19T08:16:14;100241.75;;;20.63;89.82
4085;BME280;2057;50.858;6.572;2022-08-19T08:18:39;100234.94;;;20.75;89.25
4085;BME280;2057;50.858;6.572;2022-08-19T08:21:07;100236.69;;;20.91;88.24
4085;BME280;2057;50.858;6.572;2022-08-19T08:23:33;100240.97;;;20.84;87.30
4085;BME280;2057;50.858;6.572;2022-08-19T08:25:58;100240.16;;;21.03;84.33
4085;BME280;2057;50.858;6.572;2022-08-19T08:28:25;100249.63;;;21.08;83.04
4085;BME280;2057;50.858;6.572;2022-08-19T08:30:52;100253.91;;;21.05;82.97
4085;BME280;2057;50.858;6.572;2022-08-19T08:33:20;100257.41;;;21.10;81.50
4085;BME280;2057;50.858;6.572;2022-08-19T08:35:46;100255.66;;;20.98;81.37
4085;BME280;2057;50.858;6.572;2022-08-19T08:38:12;100257.34;;;20.97;80.36
4085;BME280;2057;50.858;6.572;2022-08-19T08:40:50;100257.34;;;20.91;80.82
4085;BME280;2057;50.858;6.572;2022-08-19T08:43:29;100249.63;;;21.02;80.61
4085;BME280;2057;50.858;6.572;2022-08-19T08:46:13;100253.09;;;21.20;79.22
4085;BME280;2057;50.858;6.572;2022-08-19T08:48:50;100243.63;;;21.29;79.55
4085;BME280;2057;50.858;6.572;2022-08-19T08:51:23;100247.09;;;21.44;79.63
4085;BME280;2057;50.858;6.572;2022-08-19T08:53:52;100241.06;;;21.53;80.38
4085;BME280;2057;50.858;6.572;2022-08-19T08:56:19;100238.47;;;21.57;80.37
4085;BME280;2057;50.858;6.572;2022-08-19T08:58:56;100238.50;;;21.60;80.33
4085;BME280;2057;50.858;6.572;2022-08-19T09:01:22;100235.91;;;21.71;81.09
4085;BME280;2057;50.858;6.572;2022-08-19T09:03:48;100241.09;;;21.71;80.40
4085;BME280;2057;50.858;6.572;2022-08-19T09:06:23;100242.81;;;21.80;80.10
4085;BME280;2057;50.858;6.572;2022-08-19T09:09:04;100240.19;;;21.89;80.43
4085;BME280;2057;50.858;6.572;2022-08-19T09:16:57;100244.53;;;21.66;81.83
4085;BME280;2057;50.858;6.572;2022-08-19T09:19:23;100235.91;;;21.62;82.70
4085;BME280;2057;50.858;6.572;2022-08-19T09:21:48;100235.06;;;21.77;83.16
4085;BME280;2057;50.858;6.572;2022-08-19T09:24:15;100235.88;;;21.82;83.21
4085;BME280;2057;50.858;6.572;2022-08-19T09:26:41;100245.34;;;21.89;82.89
4085;BME280;2057;50.858;6.572;2022-08-19T09:29:08;100241.88;;;22.12;83.29
4085;BME280;2057;50.858;6.572;2022-08-19T09:31:35;100242.72;;;22.16;81.92
4085;BME280;2057;50.858;6.572;2022-08-19T09:34:01;100246.19;;;22.15;81.78
4085;BME280;2057;50.858;6.572;2022-08-19T09:36:29;100245.28;;;22.30;81.34
4085;BME280;2057;50.858;6.572;2022-08-19T09:38:58;100247.84;;;22.40;79.91
4085;BME280;2057;50.858;6.572;2022-08-19T09:41:25;100246.94;;;22.48;79.79
4085;BME280;2057;50.858;6.572;2022-08-19T09:43:52;100243.47;;;22.55;78.97
4085;BME280;2057;50.858;6.572;2022-08-19T09:46:19;100240.78;;;22.80;78.87
4085;BME280;2057;50.858;6.572;2022-08-19T09:48:49;100235.56;;;22.86;77.74
4085;BME280;2057;50.858;6.572;2022-08-19T09:51:22;100238.09;;;22.94;75.91
4085;BME280;2057;50.858;6.572;2022-08-19T09:53:49;100246.75;;;22.93;77.20
4085;BME280;2057;50.858;6.572;2022-08-19T09:56:22;100229.44;;;22.98;76.22
4085;BME280;2057;50.858;6.572;2022-08-19T09:58:48;100236.25;;;23.19;73.92
4085;BME280;2057;50.858;6.572;2022-08-19T10:01:19;100228.44;;;23.22;74.69
4085;BME280;2057;50.858;6.572;2022-08-19T10:03:47;100241.97;;;23.57;74.29
4085;BME280;2057;50.858;6.572;2022-08-19T10:06:14;100232.63;;;23.37;73.49
4085;BME280;2057;50.858;6.572;2022-08-19T10:08:39;100248.25;;;23.29;76.09
4085;BME280;2057;50.858;6.572;2022-08-19T10:11:05;100229.16;;;23.38;74.38
4085;BME280;2057;50.858;6.572;2022-08-19T10:13:32;100233.50;;;23.41;74.50
4085;BME280;2057;50.858;6.572;2022-08-19T10:16:06;100232.59;;;23.43;74.13
4085;BME280;2057;50.858;6.572;2022-08-19T10:18:33;100222.34;;;23.29;74.84
4085;BME280;2057;50.858;6.572;2022-08-19T10:21:05;100220.69;;;23.22;75.71
4085;BME280;2057;50.858;6.572;2022-08-19T10:23:33;100229.22;;;23.35;76.02
4085;BME280;2057;50.858;6.572;2022-08-19T10:26:00;100226.78;;;23.07;76.64
4085;BME280;2057;50.858;6.572;2022-08-19T10:28:25;100225.00;;;23.15;76.93
4085;BME280;2057;50.858;6.572;2022-08-19T10:30:51;100220.66;;;23.21;76.41
4085;BME280;2057;50.858;6.572;2022-08-19T10:33:16;100226.63;;;23.33;75.79
4085;BME280;2057;50.858;6.572;2022-08-19T10:35:42;100227.38;;;23.46;75.79
4085;BME280;2057;50.858;6.572;2022-08-19T10:38:07;100226.38;;;23.61;74.43
4085;BME280;2057;50.858;6.572;2022-08-19T10:40:32;100221.41;;;23.38;74.92
4085;BME280;2057;50.858;6.572;2022-08-19T10:42:58;100221.38;;;23.44;75.55
4085;BME280;2057;50.858;6.572;2022-08-19T10:45:23;100233.34;;;23.55;74.13
4085;BME280;2057;50.858;6.572;2022-08-19T10:47:52;100234.22;;;23.55;74.05
4085;BME280;2057;50.858;6.572;2022-08-19T10:50:17;100233.44;;;23.44;73.67
4085;BME280;2057;50.858;6.572;2022-08-19T10:53:09;100225.63;;;23.48;73.21
4085;BME280;2057;50.858;6.572;2022-08-19T10:55:35;100225.56;;;23.55;73.69
4085;BME280;2057;50.858;6.572;2022-08-19T10:58:20;100225.63;;;23.48;74.16
4085;BME280;2057;50.858;6.572;2022-08-19T11:01:05;100230.81;;;23.48;73.92
4085;BME280;2057;50.858;6.572;2022-08-19T11:03:31;100230.91;;;23.39;73.97
4085;BME280;2057;50.858;6.572;2022-08-19T11:06:05;100232.75;;;23.25;74.29
4085;BME280;2057;50.858;6.572;2022-08-19T11:08:33;100242.25;;;23.26;74.25
4085;BME280;2057;50.858;6.572;2022-08-19T11:11:00;100234.44;;;23.29;73.99
4085;BME280;2057;50.858;6.572;2022-08-19T11:13:33;100214.44;;;23.45;73.32
4085;BME280;2057;50.858;6.572;2022-08-19T11:16:12;100215.28;;;23.48;73.45
4085;BME280;2057;50.858;6.572;2022-08-19T11:18:43;100217.09;;;23.39;74.06
4085;BME280;2057;50.858;6.572;2022-08-19T11:21:15;100221.25;;;23.58;72.59
4085;BME280;2057;50.858;6.572;2022-08-19T11:23:48;100210.72;;;23.72;72.70
4085;BME280;2057;50.858;6.572;2022-08-19T11:26:14;100209.72;;;23.87;70.96
4085;BME280;2057;50.858;6.572;2022-08-19T11:28:40;100208.59;;;24.15;69.57
4085;BME280;2057;50.858;6.572;2022-08-19T11:31:18;100206.81;;;24.18;68.40
4085;BME280;2057;50.858;6.572;2022-08-19T11:33:45;100200.63;;;24.30;68.54
4085;BME280;2057;50.858;6.572;2022-08-19T11:36:11;100207.16;;;24.59;68.10
4085;BME280;2057;50.858;6.572;2022-08-19T11:38:37;100195.72;;;24.74;66.45
4085;BME280;2057;50.858;6.572;2022-08-19T11:41:06;100191.00;;;24.38;67.50
4085;BME280;2057;50.858;6.572;2022-08-19T11:43:33;100198.72;;;24.43;67.43
4085;BME280;2057;50.858;6.572;2022-08-19T11:45:58;100190.22;;;24.32;66.08
4085;BME280;2057;50.858;6.572;2022-08-19T11:48:25;100201.44;;;24.32;66.34
4085;BME280;2057;50.858;6.572;2022-08-19T11:50:53;100204.41;;;24.01;67.35
4085;BME280;2057;50.858;6.572;2022-08-19T11:53:22;100198.03;;;24.28;66.69
4085;BME280;2057;50.858;6.572;2022-08-19T11:55:49;100194.28;;;24.51;64.89
4085;BME280;2057;50.858;6.572;2022-08-19T11:58:17;100196.31;;;24.95;64.14
4085;BME280;2057;50.858;6.572;2022-08-19T12:00:43;100188.59;;;24.90;60.55
4085;BME280;2057;50.858;6.572;2022-08-19T12:03:10;100183.25;;;24.98;60.88
4085;BME280;2057;50.858;6.572;2022-08-19T12:05:37;100191.56;;;25.21;58.00
4085;BME280;2057;50.858;6.572;2022-08-19T12:08:03;100189.91;;;25.16;58.44
4085;BME280;2057;50.858;6.572;2022-08-19T12:10:28;100180.28;;;25.21;59.25
4085;BME280;2057;50.858;6.572;2022-08-19T12:12:54;100189.63;;;25.33;57.84
4085;BME280;2057;50.858;6.572;2022-08-19T12:15:19;100182.16;;;25.13;58.59
4085;BME280;2057;50.858;6.572;2022-08-19T12:17:45;100180.44;;;25.12;59.66
4085;BME280;2057;50.858;6.572;2022-08-19T12:20:12;100166.34;;;25.27;59.57
4085;BME280;2057;50.858;6.572;2022-08-19T12:22:39;100176.28;;;25.55;59.47
4085;BME280;2057;50.858;6.572;2022-08-19T12:25:07;100173.06;;;25.38;58.92
4085;BME280;2057;50.858;6.572;2022-08-19T12:27:33;100166.56;;;25.64;58.38
4085;BME280;2057;50.858;6.572;2022-08-19T12:29:58;100174.66;;;25.49;57.78
4085;BME280;2057;50.858;6.572;2022-08-19T12:32:26;100170.72;;;25.75;58.47
4085;BME280;2057;50.858;6.572;2022-08-19T12:34:52;100162.19;;;25.66;59.16
4085;BME280;2057;50.858;6.572;2022-08-19T12:37:17;100157.50;;;25.37;59.41
4085;BME280;2057;50.858;6.572;2022-08-19T12:39:43;100161.19;;;25.25;60.41
4085;BME280;2057;50.858;6.572;2022-08-19T12:42:10;100167.22;;;25.27;59.73
4085;BME280;2057;50.858;6.572;2022-08-19T12:44:37;100164.97;;;25.57;58.81
4085;BME280;2057;50.858;6.572;2022-08-19T12:47:05;100172.94;;;25.48;57.70
4085;BME280;2057;50.858;6.572;2022-08-19T12:49:32;100164.38;;;25.43;57.29
4085;BME280;2057;50.858;6.572;2022-08-19T12:52:02;100170.16;;;25.57;57.73
4085;BME280;2057;50.858;6.572;2022-08-19T12:54:28;100170.13;;;25.59;59.33
4085;BME280;2057;50.858;6.572;2022-08-19T12:56:56;100168.59;;;25.48;58.08
4085;BME280;2057;50.858;6.572;2022-08-19T12:59:21;100166.88;;;25.93;58.53
4085;BME280;2057;50.858;6.572;2022-08-19T13:01:47;100170.41;;;25.92;58.87
4085;BME280;2057;50.858;6.572;2022-08-19T13:04:12;100167.97;;;26.26;57.26
4085;BME280;2057;50.858;6.572;2022-08-19T13:06:38;100166.97;;;25.88;56.23
4085;BME280;2057;50.858;6.572;2022-08-19T13:09:04;100172.63;;;26.10;55.75
4085;BME280;2057;50.858;6.572;2022-08-19T13:11:30;100160.34;;;26.17;54.27
4085;BME280;2057;50.858;6.572;2022-08-19T13:13:59;100165.75;;;26.09;55.06
4085;BME280;2057;50.858;6.572;2022-08-19T13:16:26;100159.41;;;26.21;53.53
4085;BME280;2057;50.858;6.572;2022-08-19T13:18:53;100166.41;;;26.19;55.25
4085;BME280;2057;50.858;6.572;2022-08-19T13:21:23;100166.34;;;26.21;56.88